createdAt,value
2023-07-03T00:00:53.009Z,72.21
2023-07-03T00:03:21.515Z,71.74
2023-07-03T00:05:50.013Z,72.27
2023-07-03T00:08:19.775Z,72.16
2023-07-03T00:10:47.962Z,72.38
2023-07-03T00:13:16.089Z,72.46
2023-07-03T00:15:44.515Z,71.94
2023-07-03T00:18:12.943Z,71.59
2023-07-03T00:20:41.116Z,71.51
2023-07-03T00:23:09.237Z,71.74
2023-07-03T00:25:39.854Z,71.56
2023-07-03T00:28:08.562Z,70.91
2023-07-03T00:30:37.778Z,71.13
2023-07-03T00:33:05.912Z,71.20
2023-07-03T00:35:33.989Z,71.43
2023-07-03T00:38:02.759Z,71.28
2023-07-03T00:40:30.898Z,70.80
2023-07-03T00:43:02.007Z,71.54
2023-07-03T00:45:30.296Z,71.16
2023-07-03T00:47:59.822Z,71.26
2023-07-03T00:50:28.373Z,71.26
2023-07-03T00:53:01.330Z,71.18
2023-07-03T00:55:29.736Z,71.59
2023-07-03T00:57:57.795Z,71.55
2023-07-03T01:00:34.942Z,72.00
2023-07-03T01:03:09.483Z,71.96
2023-07-03T01:05:44.553Z,72.48
2023-07-03T01:08:13.241Z,72.70
2023-07-03T01:10:42.289Z,72.58
2023-07-03T01:13:15.423Z,72.58
2023-07-03T01:15:46.926Z,72.69
2023-07-03T01:18:18.290Z,73.06
2023-07-03T01:20:51.979Z,72.83
2023-07-03T01:23:31.244Z,72.55
2023-07-03T01:26:06.847Z,72.62
2023-07-03T01:28:37.258Z,72.35
2023-07-03T01:31:08.873Z,72.17
2023-07-03T01:33:41.571Z,72.07
2023-07-03T01:36:13.488Z,72.25
2023-07-03T01:38:44.175Z,72.02
2023-07-03T01:41:16.602Z,71.74
2023-07-03T01:43:46.559Z,71.75
2023-07-03T01:46:15.765Z,71.17
2023-07-03T01:48:44.749Z,71.52
2023-07-03T01:51:20.915Z,70.95
2023-07-03T01:53:54.989Z,70.94
2023-07-03T01:56:30.816Z,70.80
2023-07-03T01:59:05.393Z,70.63
2023-07-03T02:01:42.989Z,70.81
2023-07-03T02:04:19.481Z,70.45
2023-07-03T02:06:49.728Z,69.91
2023-07-03T02:09:18.721Z,69.96
2023-07-03T02:11:53.428Z,69.45
2023-07-03T02:14:22.043Z,69.30
2023-07-03T02:16:50.164Z,68.94
2023-07-03T02:19:18.659Z,68.88
2023-07-03T02:21:46.858Z,68.61
2023-07-03T02:24:15.520Z,68.70
2023-07-03T02:26:44.125Z,68.50
2023-07-03T02:29:13.866Z,68.77
2023-07-03T02:31:41.956Z,68.61
2023-07-03T02:34:10.171Z,68.38
2023-07-03T02:36:39.405Z,68.17
2023-07-03T02:39:10.569Z,67.61
2023-07-03T02:41:38.808Z,67.22
2023-07-03T02:44:06.898Z,66.88
2023-07-03T02:46:37.797Z,66.14
2023-07-03T02:49:06.048Z,65.64
2023-07-03T02:51:34.178Z,65.35
2023-07-03T02:54:06.646Z,65.08
2023-07-03T02:56:35.009Z,65.29
2023-07-03T02:59:03.557Z,65.34
2023-07-03T03:01:35.452Z,63.52
2023-07-03T03:04:05.401Z,60.27
2023-07-03T03:06:34.310Z,58.91
2023-07-03T03:09:02.588Z,56.21
2023-07-03T03:11:33.468Z,52.74
2023-07-03T03:14:01.937Z,50.66
2023-07-03T03:16:30.745Z,44.77
2023-07-03T03:18:59.010Z,42.24
2023-07-03T03:21:28.727Z,39.22
2023-07-03T03:23:56.980Z,37.39
2023-07-03T03:26:26.126Z,37.01
2023-07-03T03:28:54.324Z,37.92
2023-07-03T03:31:23.046Z,39.18
2023-07-03T03:33:58.366Z,40.10
2023-07-03T03:36:28.284Z,40.65
2023-07-03T03:38:56.602Z,38.34
2023-07-03T03:41:25.351Z,37.02
2023-07-03T03:43:54.217Z,34.84
2023-07-03T03:46:25.191Z,35.49
2023-07-03T03:48:53.706Z,38.56
2023-07-03T03:51:21.897Z,40.23
2023-07-03T03:53:52.792Z,41.05
2023-07-03T03:56:21.621Z,42.55
2023-07-03T03:58:49.722Z,41.61
2023-07-03T04:01:17.910Z,40.42
2023-07-03T04:03:46.908Z,39.55
2023-07-03T04:06:17.452Z,40.04
2023-07-03T04:08:45.601Z,40.27
2023-07-03T04:11:15.203Z,41.07
2023-07-03T04:13:43.520Z,41.77
2023-07-03T04:16:12.106Z,43.57
2023-07-03T04:18:41.890Z,44.44
2023-07-03T04:21:10.136Z,45.82
2023-07-03T04:23:38.191Z,47.11
2023-07-03T04:26:06.501Z,48.05
2023-07-03T04:28:36.132Z,48.92
2023-07-03T04:31:04.722Z,50.15
2023-07-03T04:33:32.980Z,50.65
2023-07-03T04:36:00.992Z,51.45
2023-07-03T04:38:29.172Z,52.58
2023-07-03T04:40:57.676Z,52.83
2023-07-03T04:43:26.732Z,53.20
2023-07-03T04:45:57.534Z,53.11
2023-07-03T04:48:25.931Z,51.36
2023-07-03T04:50:53.999Z,51.21
2023-07-03T04:53:22.816Z,51.65
2023-07-03T04:55:51.571Z,52.03
2023-07-03T04:58:19.920Z,52.62
2023-07-03T05:00:48.331Z,53.28
2023-07-03T05:03:18.641Z,53.52
2023-07-03T05:05:46.935Z,53.92
2023-07-03T05:08:15.196Z,54.36
2023-07-03T05:10:43.273Z,54.75
2023-07-03T05:13:11.317Z,54.54
2023-07-03T05:15:39.621Z,54.28
2023-07-03T05:18:07.870Z,54.06
2023-07-03T05:20:37.401Z,54.66
2023-07-03T05:23:05.448Z,54.65
2023-07-03T05:25:33.633Z,54.56
2023-07-03T05:28:01.715Z,55.00
2023-07-03T05:30:29.918Z,54.95
2023-07-03T05:32:58.482Z,55.12
2023-07-03T05:35:26.890Z,54.24
2023-07-03T05:37:57.594Z,54.07
2023-07-03T05:40:26.196Z,53.29
2023-07-03T05:42:55.817Z,52.65
2023-07-03T05:45:25.372Z,53.38
2023-07-03T05:47:54.162Z,53.71
2023-07-03T05:50:22.952Z,54.42
2023-07-03T05:52:51.586Z,54.90
2023-07-03T05:55:22.068Z,54.86
2023-07-03T05:57:50.559Z,54.23
2023-07-03T06:00:19.392Z,53.93
2023-07-03T06:02:49.580Z,53.81
2023-07-03T06:05:18.013Z,53.38
2023-07-03T06:07:46.139Z,53.28
2023-07-03T06:10:15.007Z,52.43
2023-07-03T06:12:45.104Z,51.88
2023-07-03T06:15:13.840Z,50.94
2023-07-03T06:17:43.540Z,50.67
2023-07-03T06:20:12.645Z,50.53
2023-07-03T06:22:41.713Z,50.74
2023-07-03T06:25:10.472Z,51.02
2023-07-03T06:27:38.521Z,51.30
2023-07-03T06:30:10.006Z,51.21
2023-07-03T06:32:38.833Z,49.85
2023-07-03T06:35:07.626Z,47.76
2023-07-03T06:37:37.272Z,47.35
2023-07-03T06:40:10.686Z,47.78
2023-07-03T06:42:39.556Z,48.35
2023-07-03T06:45:15.901Z,49.59
2023-07-03T06:47:45.244Z,50.21
2023-07-03T06:50:14.423Z,50.92
2023-07-03T06:52:43.853Z,51.18
2023-07-03T06:55:15.302Z,49.77
2023-07-03T06:57:43.642Z,49.57
2023-07-03T07:00:13.046Z,49.54
2023-07-03T07:02:42.837Z,49.79
2023-07-03T07:05:11.533Z,49.77
2023-07-03T07:07:39.766Z,49.47
2023-07-03T07:10:09.002Z,50.20
2023-07-03T07:12:37.198Z,50.68
2023-07-03T07:15:06.395Z,51.17
2023-07-03T07:17:50.496Z,51.94
2023-07-03T07:20:21.192Z,51.99
2023-07-03T07:22:50.693Z,52.67
2023-07-03T07:25:18.814Z,52.61
2023-07-03T07:27:47.574Z,52.88
2023-07-03T07:30:16.060Z,52.62
2023-07-03T07:32:45.606Z,53.14
2023-07-03T07:35:13.828Z,53.71
2023-07-03T07:37:43.242Z,53.35
2023-07-03T07:40:12.641Z,52.33
2023-07-03T07:42:41.847Z,51.90
2023-07-03T07:45:10.699Z,51.32
2023-07-03T07:47:39.598Z,49.72
2023-07-03T07:50:08.951Z,48.86
2023-07-03T07:52:37.812Z,48.33
2023-07-03T07:55:08.550Z,47.74
2023-07-03T07:57:36.620Z,47.08
2023-07-03T08:00:06.651Z,45.92
2023-07-03T08:02:40.326Z,43.09
2023-07-03T08:05:09.987Z,40.53
2023-07-03T08:07:38.183Z,38.72
2023-07-03T08:10:08.949Z,38.38
2023-07-03T08:12:37.117Z,38.29
2023-07-03T08:15:06.362Z,39.08
2023-07-03T08:17:35.171Z,40.42
2023-07-03T08:20:03.405Z,40.31
2023-07-03T08:22:32.287Z,39.38
2023-07-03T08:25:00.354Z,39.42
2023-07-03T08:27:29.757Z,39.40
2023-07-03T08:29:58.573Z,38.88
2023-07-03T08:32:26.717Z,38.20
2023-07-03T08:37:25.916Z,39.26
2023-07-03T08:39:54.169Z,39.97
2023-07-03T08:42:26.081Z,40.45
2023-07-03T08:44:56.352Z,40.83
2023-07-03T08:47:29.362Z,40.46
2023-07-03T08:49:59.594Z,40.34
2023-07-03T08:52:33.184Z,40.66
2023-07-03T08:55:02.393Z,41.07
2023-07-03T08:57:33.596Z,41.12
2023-07-03T09:00:04.966Z,41.33
2023-07-03T09:02:38.413Z,40.81
2023-07-03T09:05:24.177Z,40.90
2023-07-03T09:07:56.294Z,40.35
2023-07-03T09:10:27.944Z,40.20
2023-07-03T09:13:02.190Z,40.63
2023-07-03T09:15:37.201Z,41.02
2023-07-03T09:18:14.028Z,41.04
2023-07-03T09:20:44.236Z,40.25
2023-07-03T09:23:19.571Z,39.75
2023-07-03T09:25:52.252Z,39.04
2023-07-03T09:28:21.275Z,39.24
2023-07-03T09:30:51.610Z,39.50
2023-07-03T09:33:21.122Z,39.82
2023-07-03T09:35:49.982Z,40.02
2023-07-03T09:38:22.918Z,39.71
2023-07-03T09:40:59.336Z,40.00
2023-07-03T09:43:30.749Z,40.75
2023-07-03T09:46:09.307Z,42.73
2023-07-03T09:48:38.434Z,44.38
2023-07-03T09:51:08.719Z,44.12
2023-07-03T09:53:41.489Z,44.54
2023-07-03T09:56:16.408Z,44.86
2023-07-03T09:58:51.356Z,44.78
2023-07-03T10:06:40.246Z,45.26
2023-07-03T10:11:58.266Z,52.76
2023-07-03T10:14:32.348Z,53.45
2023-07-03T10:17:03.466Z,54.35
2023-07-03T10:19:35.983Z,54.22
2023-07-03T10:22:06.072Z,54.47
2023-07-03T10:24:37.001Z,54.36
2023-07-03T10:27:06.107Z,55.36
2023-07-03T10:29:38.618Z,55.02
2023-07-03T10:32:14.368Z,54.14
2023-07-03T10:34:49.795Z,54.06
2023-07-03T10:37:20.953Z,53.07
2023-07-03T10:39:54.371Z,52.74
2023-07-03T10:42:27.668Z,52.34
2023-07-03T10:45:02.323Z,52.64
2023-07-03T10:47:38.418Z,52.63
2023-07-03T10:50:09.832Z,53.26
2023-07-03T10:52:50.262Z,52.94
2023-07-03T10:55:26.493Z,53.84
2023-07-03T10:58:03.366Z,51.95
2023-07-03T11:00:44.360Z,49.47
2023-07-03T11:03:24.728Z,49.93
2023-07-03T11:06:00.764Z,50.16
2023-07-03T11:08:38.022Z,50.75
2023-07-03T11:11:15.629Z,51.10
2023-07-03T11:13:53.011Z,50.51
2023-07-03T11:16:27.278Z,51.26
2023-07-03T11:24:29.471Z,51.54
2023-07-03T11:29:37.583Z,50.53
2023-07-03T11:32:09.189Z,50.11
2023-07-03T11:40:38.930Z,47.89
2023-07-03T11:46:10.790Z,45.58
2023-07-03T11:48:49.374Z,45.14
2023-07-03T11:51:32.978Z,44.21
2023-07-03T11:54:01.760Z,44.75
2023-07-03T11:56:50.309Z,43.41
2023-07-03T11:59:32.362Z,43.70
2023-07-03T12:02:46.711Z,43.65
2023-07-03T12:05:54.103Z,42.99
2023-07-03T12:08:46.115Z,41.77
2023-07-03T12:11:16.431Z,41.44
2023-07-03T12:13:51.596Z,41.08
2023-07-03T12:16:22.290Z,40.64
2023-07-03T12:18:59.445Z,39.92
2023-07-03T12:21:34.404Z,40.91
2023-07-03T12:24:03.934Z,40.35
2023-07-03T12:26:33.092Z,40.22
2023-07-03T12:29:05.817Z,40.15
2023-07-03T12:31:34.972Z,40.46
2023-07-03T12:34:03.132Z,39.94
2023-07-03T12:36:35.139Z,39.75
2023-07-03T12:39:15.347Z,39.55
2023-07-03T12:41:44.193Z,40.04
2023-07-03T12:44:13.229Z,40.03
2023-07-03T12:46:43.124Z,37.91
2023-07-03T12:49:14.002Z,37.42
2023-07-03T12:51:50.543Z,37.40
2023-07-03T12:54:21.722Z,37.70
2023-07-03T12:56:51.252Z,37.43
2023-07-03T12:59:24.342Z,37.56
2023-07-03T13:01:55.529Z,37.98
2023-07-03T13:04:29.333Z,37.92
2023-07-03T13:06:58.561Z,38.11
2023-07-03T13:09:30.328Z,38.26
2023-07-03T13:11:58.514Z,38.61
2023-07-03T13:14:28.971Z,38.43
2023-07-03T13:16:59.094Z,38.48
2023-07-03T13:19:31.777Z,38.88
2023-07-03T13:22:03.312Z,39.60
2023-07-03T13:24:33.032Z,40.24
2023-07-03T13:27:01.943Z,40.13
2023-07-03T13:29:33.172Z,39.85
2023-07-03T13:32:15.666Z,39.55
2023-07-03T13:34:55.903Z,40.57
2023-07-03T13:37:25.629Z,41.46
2023-07-03T13:40:02.070Z,41.46
2023-07-03T13:42:32.793Z,39.33
2023-07-03T13:45:01.032Z,38.44
2023-07-03T13:47:29.695Z,38.50
2023-07-03T13:49:58.730Z,37.98
2023-07-03T13:52:27.086Z,37.65
2023-07-03T13:54:59.806Z,37.34
2023-07-03T13:57:28.068Z,37.08
2023-07-03T13:59:56.353Z,37.23
2023-07-03T14:02:34.670Z,37.68
2023-07-03T14:05:10.632Z,37.96
2023-07-03T14:07:38.799Z,38.30
2023-07-03T14:10:10.219Z,38.88
2023-07-03T14:12:38.605Z,39.13
2023-07-03T14:15:15.853Z,39.47
2023-07-03T14:17:45.104Z,40.16
2023-07-03T14:20:14.206Z,40.51
2023-07-03T14:22:42.766Z,40.69
2023-07-03T14:25:14.941Z,40.58
2023-07-03T14:27:44.231Z,40.09
2023-07-03T14:30:14.200Z,39.87
2023-07-03T14:32:54.916Z,40.36
2023-07-03T14:35:24.585Z,40.93
2023-07-03T14:37:58.582Z,41.66
2023-07-03T14:40:28.519Z,42.00
2023-07-03T14:42:56.848Z,41.84
2023-07-03T14:45:24.936Z,42.36
2023-07-03T14:47:53.077Z,42.86
2023-07-03T14:50:21.297Z,43.11
2023-07-03T14:52:50.776Z,43.09
2023-07-03T14:55:19.883Z,43.26
2023-07-03T14:57:51.764Z,43.19
2023-07-03T15:00:21.824Z,43.17
2023-07-03T15:02:51.675Z,43.09
2023-07-03T15:05:21.922Z,43.57
2023-07-03T15:07:53.270Z,43.46
2023-07-03T15:10:22.139Z,43.23
2023-07-03T15:12:51.707Z,42.95
2023-07-03T15:15:20.194Z,41.99
2023-07-03T15:17:52.465Z,41.93
2023-07-03T15:20:21.176Z,41.28
2023-07-03T15:22:52.011Z,40.86
2023-07-03T15:25:20.566Z,40.80
2023-07-03T15:27:48.722Z,41.00
2023-07-03T15:30:18.360Z,41.49
2023-07-03T15:32:51.845Z,42.27
2023-07-03T15:35:21.030Z,42.82
2023-07-03T15:37:49.387Z,43.28
2023-07-03T15:40:17.703Z,43.50
2023-07-03T15:42:46.682Z,43.71
2023-07-03T15:45:15.995Z,43.92
2023-07-03T15:47:47.100Z,44.66
2023-07-03T15:50:16.104Z,45.26
2023-07-03T15:52:44.292Z,46.23
2023-07-03T15:55:12.410Z,49.47
2023-07-03T15:57:40.452Z,51.59
2023-07-03T16:00:09.862Z,52.55
2023-07-03T16:02:39.371Z,52.34
2023-07-03T16:05:09.561Z,53.42
2023-07-03T16:07:37.690Z,53.80
2023-07-03T16:10:06.643Z,53.36
2023-07-03T16:12:34.684Z,51.60
2023-07-03T16:15:02.854Z,50.66
2023-07-03T16:17:32.886Z,48.91
2023-07-03T16:20:06.250Z,48.40
2023-07-03T16:22:39.630Z,47.88
2023-07-03T16:25:09.184Z,48.15
2023-07-03T16:27:39.456Z,49.28
2023-07-03T16:30:09.051Z,50.57
2023-07-03T16:32:37.377Z,51.49
2023-07-03T16:35:06.159Z,51.71
2023-07-03T16:37:34.328Z,51.51
2023-07-03T16:40:04.040Z,50.53
2023-07-03T16:42:32.270Z,50.77
2023-07-03T16:45:00.481Z,51.31
2023-07-03T16:47:28.859Z,51.59
2023-07-03T16:49:57.241Z,51.83
2023-07-03T16:52:25.310Z,52.37
2023-07-03T16:54:54.197Z,52.25
2023-07-03T16:57:23.710Z,52.56
2023-07-03T16:59:52.015Z,52.63
2023-07-03T17:02:20.568Z,52.14
2023-07-03T17:04:48.705Z,52.64
2023-07-03T17:07:16.708Z,52.18
2023-07-03T17:09:46.183Z,52.19
2023-07-03T17:12:14.362Z,51.50
2023-07-03T17:14:44.521Z,50.35
2023-07-03T17:17:12.872Z,49.49
2023-07-03T17:19:41.768Z,49.49
2023-07-03T17:22:09.910Z,50.16
2023-07-03T17:24:38.423Z,50.76
2023-07-03T17:27:06.779Z,50.76
2023-07-03T17:29:36.381Z,51.11
2023-07-03T17:32:11.282Z,51.57
2023-07-03T17:34:40.328Z,51.70
2023-07-03T17:37:08.562Z,52.19
2023-07-03T17:39:36.666Z,52.76
2023-07-03T17:42:05.636Z,52.99
2023-07-03T17:44:33.856Z,53.12
2023-07-03T17:47:02.028Z,53.45
2023-07-03T17:49:33.241Z,53.56
2023-07-03T17:52:01.810Z,53.04
2023-07-03T17:54:30.119Z,52.73
2023-07-03T17:56:58.262Z,51.94
2023-07-03T17:59:26.403Z,51.34
2023-07-03T18:01:54.773Z,51.08
2023-07-03T18:04:23.537Z,51.37
2023-07-03T18:06:52.993Z,51.14
2023-07-03T18:09:21.216Z,51.36
2023-07-03T18:11:49.381Z,50.92
2023-07-03T18:14:17.453Z,51.03
2023-07-03T18:16:46.214Z,50.97
2023-07-03T18:19:14.436Z,51.19
2023-07-03T18:21:42.520Z,51.13
2023-07-03T18:24:12.487Z,50.85
2023-07-03T18:26:40.655Z,51.17
2023-07-03T18:29:09.408Z,50.98
2023-07-03T18:31:37.611Z,50.99
2023-07-03T18:34:05.717Z,50.84
2023-07-03T18:36:35.786Z,50.70
2023-07-03T18:39:04.116Z,50.85
2023-07-03T18:41:33.512Z,51.19
2023-07-03T18:44:01.922Z,50.87
2023-07-03T18:46:30.211Z,50.78
2023-07-03T18:48:58.769Z,51.19
2023-07-03T18:51:27.200Z,51.22
2023-07-03T18:53:55.480Z,50.55
2023-07-03T18:56:23.583Z,50.00
2023-07-03T18:58:52.989Z,50.13
2023-07-03T19:01:22.005Z,50.03
2023-07-03T19:03:50.119Z,49.82
2023-07-03T19:06:20.446Z,49.34
2023-07-03T19:08:48.674Z,49.08
2023-07-03T19:11:16.904Z,48.93
2023-07-03T19:13:45.165Z,48.95
2023-07-03T19:16:16.020Z,49.26
2023-07-03T19:18:45.950Z,48.93
2023-07-03T19:21:14.649Z,49.26
2023-07-03T19:23:43.193Z,49.17
2023-07-03T19:26:12.244Z,49.06
2023-07-03T19:28:40.789Z,49.11
2023-07-03T19:31:09.604Z,49.36
2023-07-03T19:33:39.293Z,49.44
2023-07-03T19:36:13.991Z,48.94
2023-07-03T19:38:43.607Z,49.22
2023-07-03T19:41:12.421Z,49.30
2023-07-03T19:43:41.936Z,49.68
2023-07-03T19:46:10.711Z,49.77
2023-07-03T19:48:40.586Z,51.54
2023-07-03T19:51:08.893Z,52.83
2023-07-03T19:53:37.517Z,53.59
2023-07-03T19:56:05.731Z,54.21
2023-07-03T19:58:33.802Z,54.94
2023-07-03T20:01:02.745Z,55.58
2023-07-03T20:03:31.311Z,55.74
2023-07-03T20:06:01.073Z,56.86
2023-07-03T20:08:29.254Z,56.28
2023-07-03T20:11:01.672Z,56.38
2023-07-03T20:13:30.769Z,56.92
2023-07-03T20:16:02.993Z,57.22
2023-07-03T20:18:31.275Z,57.58
2023-07-03T20:21:01.697Z,58.72
2023-07-03T20:23:30.133Z,58.63
2023-07-03T20:25:58.975Z,59.21
2023-07-03T20:28:27.505Z,60.47
2023-07-03T20:30:55.932Z,60.87
2023-07-03T20:33:24.245Z,61.12
2023-07-03T20:36:13.476Z,61.08
2023-07-03T20:38:41.880Z,61.67
2023-07-03T20:41:11.897Z,62.06
2023-07-03T20:43:41.499Z,62.81
2023-07-03T20:46:12.177Z,62.05
2023-07-03T20:48:40.602Z,62.37
2023-07-03T20:51:14.078Z,62.12
2023-07-03T20:54:01.279Z,62.56
2023-07-03T20:56:30.949Z,61.91
2023-07-03T20:59:00.329Z,61.74
2023-07-03T21:01:32.198Z,61.66
2023-07-03T21:04:04.181Z,61.34
2023-07-03T21:06:34.424Z,61.94
2023-07-03T21:09:05.778Z,61.53
2023-07-03T21:11:36.353Z,62.07
2023-07-03T21:14:07.181Z,62.25
2023-07-03T21:16:37.228Z,62.28
2023-07-03T21:19:08.244Z,62.27
2023-07-03T21:21:36.542Z,62.58
2023-07-03T21:24:12.190Z,63.04
2023-07-03T21:26:41.123Z,62.76
2023-07-03T21:29:09.481Z,63.49
2023-07-03T21:31:38.321Z,63.48
2023-07-03T21:34:07.086Z,63.37
2023-07-03T21:36:35.237Z,63.70
2023-07-03T21:39:06.138Z,63.76
2023-07-03T21:41:36.801Z,64.07
2023-07-03T21:44:12.428Z,64.40
2023-07-03T21:46:41.988Z,65.12
2023-07-03T21:49:14.334Z,65.57
2023-07-03T21:51:43.381Z,65.70
2023-07-03T21:54:12.843Z,66.00
2023-07-03T21:56:43.210Z,66.74
2023-07-03T21:59:13.134Z,66.95
2023-07-03T22:01:43.050Z,66.63
2023-07-03T22:04:11.753Z,67.26
2023-07-03T22:06:39.850Z,67.31
2023-07-03T22:09:07.875Z,67.93
2023-07-03T22:11:37.325Z,68.06
2023-07-03T22:14:05.656Z,68.20
2023-07-03T22:16:33.854Z,68.37
2023-07-03T22:19:02.057Z,68.95
2023-07-03T22:21:31.506Z,68.60
2023-07-03T22:23:59.559Z,68.06
2023-07-03T22:26:27.635Z,67.95
2023-07-03T22:28:57.743Z,68.03
2023-07-03T22:31:27.584Z,67.40
2023-07-03T22:33:55.945Z,67.00
2023-07-03T22:36:24.531Z,66.99
2023-07-03T22:38:52.512Z,67.04
2023-07-03T22:41:23.492Z,67.06
2023-07-03T22:43:51.742Z,67.03
2023-07-03T22:46:21.128Z,67.79
2023-07-03T22:48:53.879Z,67.46
2023-07-03T22:51:25.339Z,68.11
2023-07-03T22:53:53.573Z,67.71
2023-07-03T22:56:21.691Z,67.55
2023-07-03T22:58:49.771Z,67.72
2023-07-03T23:01:17.898Z,67.82
2023-07-03T23:03:47.489Z,67.83
2023-07-03T23:06:15.702Z,67.79
2023-07-03T23:08:44.645Z,68.05
2023-07-03T23:11:12.750Z,68.71
2023-07-03T23:13:41.072Z,68.37
2023-07-03T23:16:10.497Z,68.59
2023-07-03T23:18:41.617Z,68.21
2023-07-03T23:21:16.765Z,68.17
2023-07-03T23:23:46.109Z,68.45
2023-07-03T23:26:16.047Z,68.00
2023-07-03T23:28:46.366Z,68.45
2023-07-03T23:31:16.271Z,68.14
2023-07-03T23:33:49.190Z,68.60
2023-07-03T23:36:23.745Z,68.82
2023-07-03T23:38:53.001Z,68.52
2023-07-03T23:41:21.274Z,68.63
2023-07-03T23:43:49.957Z,69.06
2023-07-03T23:46:19.362Z,69.41
2023-07-03T23:48:48.613Z,69.12
2023-07-03T23:51:17.786Z,69.12
2023-07-03T23:53:48.728Z,69.02
2023-07-03T23:56:19.454Z,68.97
2023-07-03T23:58:49.367Z,68.74
